Terminal Aerodrome Forecast
Issued by NWS Cleveland, OH

Home | Current Version | Previous Version | Graphics & Text | Print | Product List | Glossary On
Versions: 1 2 3 4 5 6 7 8 9 10 11 12 13
008
FTUS41 KCLE 212218 AAB
TAFCAK
TAF AMD
KCAK 212218Z 2122/2218 03010KT P6SM VCSH SCT008 OVC015
      TEMPO 2122/2124 5SM -DZ BKN008 OVC015
     FM220100 01005KT 5SM BR BKN025 OVC070
     FM220800 32003KT 4SM BR SCT025 BKN100
     FM221500 33008KT P6SM VCSH OVC025=

USA.gov is the U.S. government's official web portal to all federal, state and local government web resources and services.